Cuevas, Mississippi
Current Conditions -  °F | °C
As of 7:51 PM on Tuesday 25 Nov 2014 (Local Time) from KHSA Reporting Station
Scattered Clouds Scattered Clouds  
Wind Chill: 50°   Ceiling: Unl
Heat Index: 50°   Visibility: 10mi
Dew Point: 30°   Wind: 7mph
Humidity: 47%   Direction: 350°N
Pressure: 30.21"   Gusts: NA
Location:  30.4627°N, 89.3274°W
Report Text: KHSA 260151Z 35006KT 10SM SCT110 10/M01 A3021
Loading
Personal Weather Stations






























Interactive Weather Map New forecast layout! Learn more

10-Day Weather Forecast

Advertisements
Track Severe Weather on mobile